Terminal Aerodrome Forecast
Issued by NWS Bismarck, ND

Home | Current Version | Previous Version | Graphics & Text | Print | Product List | Glossary On
Versions: 1 2 3 4 5 6 7 8 9 10 11 12 13 14 15 16 17
366
FTUS43 KBIS 032320
TAFBIS
TAF
KBIS 032320Z 0400/0424 01015G22KT P6SM SKC
     FM040200 02007KT P6SM SKC
     FM040500 VRB03KT P6SM SKC
     FM042000 18009KT P6SM SKC=

USA.gov is the U.S. government's official web portal to all federal, state and local government web resources and services.